s-Heerenberg, Netherlands
Current Conditions -  °F | °C
As of 9:50 AM on Saturday 22 Nov 2014 (Local Time) from EDLV Reporting Station
Clear Clear  
Wind Chill: 40°   Ceiling: Unl
Heat Index: 45°   Visibility: 6mi
Dew Point: 43°   Wind: 9mph
Humidity: 93%   Direction: 130°SE
Pressure: 30.06"   Gusts: NA
Location:  51.88°N, 6.26°E
Report Text: EDLV 220850Z 13008KT CAVOK 07/06 Q1018
Loading
Personal Weather Stations






























Interactive Weather Map New forecast layout! Learn more

10-Day Weather Forecast

Advertisements
Track Severe Weather on mobile